createdAt,value
2018-10-17T00:01:11.122Z,18.13
2018-10-17T00:06:15.858Z,13.23
2018-10-17T00:11:21.386Z,14.63
2018-10-17T00:16:25.591Z,12.10
2018-10-17T00:21:29.930Z,15.17
2018-10-17T00:26:35.230Z,13.53
2018-10-17T00:31:40.083Z,18.23
2018-10-17T00:36:44.501Z,17.70
2018-10-17T00:41:50.059Z,13.87
2018-10-17T00:46:54.268Z,12.13
2018-10-17T00:51:59.181Z,14.93
2018-10-17T00:57:03.588Z,13.53
2018-10-17T01:02:07.801Z,16.27
2018-10-17T01:07:12.423Z,14.20
2018-10-17T01:12:16.957Z,11.28
2018-10-17T01:17:22.775Z,14.33
2018-10-17T01:22:27.065Z,17.17
2018-10-17T01:27:32.264Z,14.33
2018-10-17T01:32:37.006Z,15.67
2018-10-17T01:37:41.641Z,18.03
2018-10-17T01:42:46.372Z,13.90
2018-10-17T01:47:51.562Z,20.20
2018-10-17T01:52:55.988Z,15.07
2018-10-17T01:58:00.227Z,18.07
2018-10-17T02:03:04.706Z,16.73
2018-10-17T02:08:09.253Z,14.80
2018-10-17T02:13:13.934Z,17.37
2018-10-17T02:18:18.327Z,14.53
2018-10-17T02:23:22.558Z,14.37
2018-10-17T02:28:27.909Z,14.00
2018-10-17T02:33:33.044Z,13.90
2018-10-17T02:38:37.340Z,15.97
2018-10-17T02:43:41.575Z,14.93
2018-10-17T02:48:46.638Z,16.60
2018-10-17T02:53:51.045Z,20.30
2018-10-17T02:58:55.903Z,34.70
2018-10-17T03:04:00.129Z,21.20
2018-10-17T03:09:06.689Z,14.80
2018-10-17T03:14:11.810Z,15.70
2018-10-17T03:19:16.192Z,16.93
2018-10-17T03:24:21.241Z,14.53
2018-10-17T03:29:26.078Z,15.47
2018-10-17T03:34:30.510Z,14.93
2018-10-17T03:39:35.078Z,19.30
2018-10-17T03:44:39.480Z,16.53
2018-10-17T03:49:44.257Z,19.70
2018-10-17T03:54:48.923Z,18.50
2018-10-17T03:59:53.186Z,18.77
2018-10-17T04:04:57.484Z,19.03
2018-10-17T04:10:02.857Z,15.83
2018-10-17T04:15:08.055Z,21.13
2018-10-17T04:20:12.662Z,20.90
2018-10-17T04:25:18.027Z,18.83
2018-10-17T04:30:23.381Z,17.20
2018-10-17T04:35:30.538Z,18.77
2018-10-17T04:40:35.046Z,15.43
2018-10-17T04:45:39.822Z,16.43
2018-10-17T04:50:44.763Z,15.93
2018-10-17T04:55:49.829Z,18.60
2018-10-17T05:00:54.499Z,18.57
2018-10-17T05:05:59.996Z,17.20
2018-10-17T05:11:05.720Z,15.33
2018-10-17T05:16:10.033Z,19.10
2018-10-17T05:21:14.940Z,18.13
2018-10-17T05:26:20.157Z,17.87
2018-10-17T05:31:28.665Z,16.27
2018-10-17T05:36:37.071Z,19.70
2018-10-17T05:41:45.925Z,19.20
2018-10-17T05:54:50.289Z,18.97
2018-10-17T05:59:55.538Z,33.27
2018-10-17T06:05:00.093Z,21.93
2018-10-17T06:10:04.570Z,29.50
2018-10-17T06:15:08.626Z,19.50
2018-10-17T06:20:13.289Z,20.03
2018-10-17T06:25:17.629Z,15.40
2018-10-17T06:30:21.899Z,13.95
2018-10-17T06:35:26.351Z,13.50
2018-10-17T06:40:30.477Z,10.27
2018-10-17T06:45:34.636Z,15.43
2018-10-17T06:50:39.055Z,12.93
2018-10-17T06:55:43.588Z,12.57
2018-10-17T07:00:47.915Z,11.33
2018-10-17T07:05:52.384Z,11.07
2018-10-17T07:10:56.501Z,9.95
2018-10-17T07:16:00.802Z,13.30
2018-10-17T07:21:05.795Z,10.00
2018-10-17T07:26:10.219Z,12.35
2018-10-17T07:31:14.765Z,16.35
2018-10-17T07:36:19.658Z,10.65
2018-10-17T07:41:23.963Z,12.60
2018-10-17T07:46:29.194Z,16.77
2018-10-17T07:51:33.366Z,13.15
2018-10-17T07:56:37.544Z,14.25
2018-10-17T08:01:42.216Z,11.35
2018-10-17T08:06:46.635Z,10.65
2018-10-17T08:11:51.077Z,13.58
2018-10-17T08:16:55.187Z,13.28
2018-10-17T08:21:59.256Z,11.83
2018-10-17T08:27:03.406Z,17.77
2018-10-17T08:32:08.668Z,19.87
2018-10-17T08:37:13.755Z,15.83
2018-10-17T08:42:17.813Z,19.75
2018-10-17T08:47:21.973Z,17.75
2018-10-17T08:52:26.170Z,17.05
2018-10-17T08:57:30.315Z,25.08
2018-10-17T09:02:34.760Z,19.87
2018-10-17T09:07:39.137Z,16.20
2018-10-17T09:12:43.687Z,13.35
2018-10-17T09:17:47.775Z,15.32
2018-10-17T09:22:51.833Z,14.40
2018-10-17T09:27:56.408Z,13.78
2018-10-17T09:33:00.634Z,11.75
2018-10-17T09:38:04.937Z,17.32
2018-10-17T09:43:09.327Z,11.22
2018-10-17T09:48:13.663Z,13.28
2018-10-17T09:53:17.989Z,13.53
2018-10-17T09:58:22.649Z,10.38
2018-10-17T10:03:26.938Z,16.52
2018-10-17T10:08:31.021Z,18.00
2018-10-17T10:13:35.189Z,13.20
2018-10-17T10:18:39.307Z,13.10
2018-10-17T10:23:44.589Z,15.38
2018-10-17T10:28:48.795Z,21.93
2018-10-17T10:33:53.051Z,9.68
2018-10-17T10:38:57.130Z,12.58
2018-10-17T10:44:01.257Z,11.75
2018-10-17T10:49:05.668Z,10.17
2018-10-17T10:54:09.892Z,14.95
2018-10-17T10:59:14.399Z,10.93
2018-10-17T11:04:18.773Z,12.80
2018-10-17T11:09:23.221Z,15.63
2018-10-17T11:14:27.422Z,18.45
2018-10-17T11:19:32.223Z,16.27
2018-10-17T11:24:36.862Z,22.80
2018-10-17T11:29:41.385Z,14.00
2018-10-17T11:34:45.785Z,15.85
2018-10-17T11:39:49.981Z,16.97
2018-10-17T11:44:54.108Z,12.95
2018-10-17T11:49:58.157Z,13.75
2018-10-17T11:55:03.016Z,17.07
2018-10-17T12:00:09.493Z,12.68
2018-10-17T12:05:15.961Z,11.67
2018-10-17T12:10:20.272Z,12.90
2018-10-17T12:15:24.346Z,10.03
2018-10-17T12:20:28.445Z,11.30
2018-10-17T12:25:32.823Z,11.48
2018-10-17T12:30:37.554Z,10.95
2018-10-17T12:35:42.041Z,10.65
2018-10-17T12:40:46.698Z,10.20
2018-10-17T12:45:50.934Z,9.30
2018-10-17T12:50:55.066Z,6.83
2018-10-17T12:55:59.830Z,9.18
2018-10-17T13:01:04.245Z,9.67
2018-10-17T13:06:09.114Z,6.58
2018-10-17T13:11:13.473Z,11.73
2018-10-17T13:16:17.512Z,14.18
2018-10-17T13:21:21.905Z,11.08
2018-10-17T13:26:26.175Z,5.95
2018-10-17T13:31:30.718Z,6.78
2018-10-17T13:36:35.202Z,10.72
2018-10-17T13:41:39.420Z,7.10
2018-10-17T13:46:43.653Z,5.83
2018-10-17T13:51:47.933Z,14.47
2018-10-17T13:56:52.352Z,8.58
2018-10-17T14:01:56.707Z,6.85
2018-10-17T14:07:01.284Z,9.15
2018-10-17T14:12:06.200Z,9.08
2018-10-17T14:17:10.350Z,8.40
2018-10-17T14:22:16.175Z,9.43
2018-10-17T14:27:20.954Z,5.28
2018-10-17T14:32:25.066Z,10.25
2018-10-17T14:37:29.424Z,11.35
2018-10-17T14:42:33.847Z,8.65
2018-10-17T14:47:38.879Z,14.78
2018-10-17T14:52:43.342Z,7.30
2018-10-17T14:57:48.024Z,8.18
2018-10-17T15:02:52.324Z,6.72
2018-10-17T15:07:56.683Z,7.80
2018-10-17T15:13:00.862Z,6.25
2018-10-17T15:18:05.017Z,7.80
2018-10-17T15:23:09.247Z,5.72
2018-10-17T15:28:13.480Z,5.80
2018-10-17T15:33:17.877Z,4.00
2018-10-17T15:38:23.669Z,8.35
2018-10-17T15:43:28.666Z,6.30
2018-10-17T15:48:34.002Z,6.20
2018-10-17T15:53:38.555Z,11.03
2018-10-17T15:58:43.006Z,6.30
2018-10-17T16:03:47.260Z,9.10
2018-10-17T16:08:51.873Z,6.03
2018-10-17T16:13:57.853Z,12.13
2018-10-17T16:19:02.827Z,9.70
2018-10-17T16:24:07.443Z,8.57
2018-10-17T16:29:12.613Z,7.72
2018-10-17T16:34:17.326Z,7.40
2018-10-17T16:39:21.663Z,6.57
2018-10-17T16:44:26.235Z,12.97
2018-10-17T16:49:30.532Z,8.83
2018-10-17T16:54:35.022Z,8.33
2018-10-17T16:59:39.939Z,11.25
2018-10-17T17:04:44.622Z,12.43
2018-10-17T17:09:50.717Z,10.75
2018-10-17T17:14:55.450Z,8.63
2018-10-17T17:19:59.946Z,13.33
2018-10-17T17:25:04.934Z,14.23
2018-10-17T17:30:14.928Z,14.07
2018-10-17T17:40:24.126Z,12.37
2018-10-17T17:45:28.212Z,11.23
2018-10-17T17:50:32.420Z,16.53
2018-10-17T17:55:37.332Z,15.13
2018-10-17T18:00:41.921Z,10.97
2018-10-17T18:05:46.386Z,15.35
2018-10-17T18:10:50.548Z,15.50
2018-10-17T18:15:54.819Z,11.00
2018-10-17T18:20:59.673Z,16.53
2018-10-17T18:26:04.376Z,17.53
2018-10-17T18:31:08.968Z,13.53
2018-10-17T18:36:13.091Z,14.13
2018-10-17T18:41:17.320Z,13.28
2018-10-17T18:46:22.866Z,15.63
2018-10-17T18:51:27.842Z,17.40
2018-10-17T18:56:32.101Z,16.30
2018-10-17T19:01:36.396Z,13.60
2018-10-17T19:06:40.780Z,14.13
2018-10-17T19:11:46.228Z,21.70
2018-10-17T19:16:51.125Z,18.30
2018-10-17T19:21:55.314Z,17.07
2018-10-17T19:26:59.755Z,13.90
2018-10-17T19:32:04.254Z,17.80
2018-10-17T19:37:08.644Z,19.27
2018-10-17T19:42:12.797Z,19.07
2018-10-17T19:47:17.070Z,14.17
2018-10-17T19:52:21.531Z,13.00
2018-10-17T19:57:25.758Z,16.83
2018-10-17T20:02:30.292Z,13.90
2018-10-17T20:07:34.518Z,16.93
2018-10-17T20:12:38.775Z,13.88
2018-10-17T20:17:42.845Z,18.57
2018-10-17T20:22:47.223Z,14.80
2018-10-17T20:27:51.520Z,17.03
2018-10-17T20:32:56.181Z,13.53
2018-10-17T20:38:00.641Z,15.00
2018-10-17T20:43:04.797Z,18.27
2018-10-17T20:48:08.959Z,15.30
2018-10-17T20:53:13.713Z,13.50
2018-10-17T20:58:18.052Z,15.10
2018-10-17T21:03:22.478Z,22.57
2018-10-17T21:08:26.625Z,15.43
2018-10-17T21:13:30.703Z,20.77
2018-10-17T21:18:35.165Z,15.30
2018-10-17T21:23:39.446Z,17.60
2018-10-17T21:28:43.714Z,15.73
2018-10-17T21:33:48.188Z,16.17
2018-10-17T21:38:52.515Z,21.47
2018-10-17T21:43:56.629Z,16.63
2018-10-17T21:49:01.064Z,16.93
2018-10-17T21:54:06.371Z,16.17
2018-10-17T21:59:10.922Z,14.10
2018-10-17T22:04:15.393Z,15.30
2018-10-17T22:09:19.473Z,13.88
2018-10-17T22:14:23.644Z,14.15
2018-10-17T22:19:28.533Z,14.13
2018-10-17T22:24:32.998Z,15.23
2018-10-17T22:29:37.624Z,16.03
2018-10-17T22:34:41.779Z,17.40
2018-10-17T22:39:45.991Z,16.45
2018-10-17T22:44:50.400Z,15.30
2018-10-17T22:49:54.928Z,14.47
2018-10-17T22:54:59.496Z,12.77
2018-10-17T23:00:03.698Z,12.03
2018-10-17T23:05:07.845Z,13.93
2018-10-17T23:10:12.656Z,15.30
2018-10-17T23:15:17.187Z,21.17
2018-10-17T23:20:21.714Z,18.63
2018-10-17T23:25:25.801Z,15.27
2018-10-17T23:30:29.884Z,13.63
2018-10-17T23:35:34.324Z,13.27
2018-10-17T23:40:38.814Z,17.37
2018-10-17T23:45:43.300Z,16.63
2018-10-17T23:50:47.834Z,17.80
2018-10-17T23:55:52.099Z,15.03
